sensor_id;sensor_type;location;lat;lon;timestamp;P1;P2;P0
29062;PMS5003;71206;48.564;-123.458;2023-11-21T00:02:07;16;13;
29062;PMS5003;71206;48.564;-123.458;2023-11-21T00:04:33;18;15;
29062;PMS5003;71206;48.564;-123.458;2023-11-21T00:07:00;18;15;
29062;PMS5003;71206;48.564;-123.458;2023-11-21T00:09:23;16;16;
29062;PMS5003;71206;48.564;-123.458;2023-11-21T00:11:48;14;13;
29062;PMS5003;71206;48.564;-123.458;2023-11-21T00:14:14;15;13;
29062;PMS5003;71206;48.564;-123.458;2023-11-21T00:16:39;11;11;
29062;PMS5003;71206;48.564;-123.458;2023-11-21T00:19:06;15;12;
29062;PMS5003;71206;48.564;-123.458;2023-11-21T00:21:29;13;10;
29062;PMS5003;71206;48.564;-123.458;2023-11-21T00:23:55;14;12;
29062;PMS5003;71206;48.564;-123.458;2023-11-21T00:26:20;9;9;
29062;PMS5003;71206;48.564;-123.458;2023-11-21T00:28:46;10;8;
29062;PMS5003;71206;48.564;-123.458;2023-11-21T00:31:11;9;8;
29062;PMS5003;71206;48.564;-123.458;2023-11-21T00:33:36;10;8;
29062;PMS5003;71206;48.564;-123.458;2023-11-21T00:36:01;9;9;
29062;PMS5003;71206;48.564;-123.458;2023-11-21T00:38:27;11;11;
29062;PMS5003;71206;48.564;-123.458;2023-11-21T00:40:52;12;10;
29062;PMS5003;71206;48.564;-123.458;2023-11-21T00:43:17;9;8;
29062;PMS5003;71206;48.564;-123.458;2023-11-21T00:45:43;13;13;
29062;PMS5003;71206;48.564;-123.458;2023-11-21T00:48:12;12;10;
29062;PMS5003;71206;48.564;-123.458;2023-11-21T00:50:34;13;12;
29062;PMS5003;71206;48.564;-123.458;2023-11-21T00:53:00;19;17;
29062;PMS5003;71206;48.564;-123.458;2023-11-21T00:55:25;15;15;
29062;PMS5003;71206;48.564;-123.458;2023-11-21T00:57:51;14;14;
29062;PMS5003;71206;48.564;-123.458;2023-11-21T01:00:17;13;13;
29062;PMS5003;71206;48.564;-123.458;2023-11-21T01:02:41;12;11;
29062;PMS5003;71206;48.564;-123.458;2023-11-21T01:05:08;13;12;
29062;PMS5003;71206;48.564;-123.458;2023-11-21T01:07:32;18;17;
29062;PMS5003;71206;48.564;-123.458;2023-11-21T01:09:58;18;15;
29062;PMS5003;71206;48.564;-123.458;2023-11-21T01:12:23;19;17;
29062;PMS5003;71206;48.564;-123.458;2023-11-21T01:14:48;34;29;
29062;PMS5003;71206;48.564;-123.458;2023-11-21T01:17:19;23;23;
29062;PMS5003;71206;48.564;-123.458;2023-11-21T01:19:39;26;23;
29062;PMS5003;71206;48.564;-123.458;2023-11-21T01:22:04;28;25;
29062;PMS5003;71206;48.564;-123.458;2023-11-21T01:24:30;39;35;
29062;PMS5003;71206;48.564;-123.458;2023-11-21T01:26:55;29;28;
29062;PMS5003;71206;48.564;-123.458;2023-11-21T01:29:20;45;39;
29062;PMS5003;71206;48.564;-123.458;2023-11-21T01:31:49;47;39;
29062;PMS5003;71206;48.564;-123.458;2023-11-21T01:34:11;35;33;
29062;PMS5003;71206;48.564;-123.458;2023-11-21T01:36:37;37;34;
29062;PMS5003;71206;48.564;-123.458;2023-11-21T01:39:02;33;28;
29062;PMS5003;71206;48.564;-123.458;2023-11-21T01:41:27;32;28;
29062;PMS5003;71206;48.564;-123.458;2023-11-21T01:43:53;30;24;
29062;PMS5003;71206;48.564;-123.458;2023-11-21T01:46:18;25;23;
29062;PMS5003;71206;48.564;-123.458;2023-11-21T01:48:43;24;22;
29062;PMS5003;71206;48.564;-123.458;2023-11-21T01:51:11;18;17;
29062;PMS5003;71206;48.564;-123.458;2023-11-21T01:53:34;26;19;
29062;PMS5003;71206;48.564;-123.458;2023-11-21T01:55:59;22;18;
29062;PMS5003;71206;48.564;-123.458;2023-11-21T01:58:25;19;18;
29062;PMS5003;71206;48.564;-123.458;2023-11-21T02:00:50;29;26;
29062;PMS5003;71206;48.564;-123.458;2023-11-21T02:03:16;22;22;
29062;PMS5003;71206;48.564;-123.458;2023-11-21T02:05:41;26;26;
29062;PMS5003;71206;48.564;-123.458;2023-11-21T02:08:06;22;18;
29062;PMS5003;71206;48.564;-123.458;2023-11-21T02:10:32;21;16;
29062;PMS5003;71206;48.564;-123.458;2023-11-21T02:12:56;19;16;
29062;PMS5003;71206;48.564;-123.458;2023-11-21T02:15:25;14;13;
29062;PMS5003;71206;48.564;-123.458;2023-11-21T02:17:48;12;11;
29062;PMS5003;71206;48.564;-123.458;2023-11-21T02:20:12;20;15;
29062;PMS5003;71206;48.564;-123.458;2023-11-21T02:22:39;22;17;
29062;PMS5003;71206;48.564;-123.458;2023-11-21T02:25:03;17;16;
29062;PMS5003;71206;48.564;-123.458;2023-11-21T02:27:27;41;27;
29062;PMS5003;71206;48.564;-123.458;2023-11-21T02:29:52;31;28;
29062;PMS5003;71206;48.564;-123.458;2023-11-21T02:32:17;31;24;
29062;PMS5003;71206;48.564;-123.458;2023-11-21T02:34:43;41;34;
29062;PMS5003;71206;48.564;-123.458;2023-11-21T02:37:09;51;39;
29062;PMS5003;71206;48.564;-123.458;2023-11-21T02:39:33;43;38;
29062;PMS5003;71206;48.564;-123.458;2023-11-21T02:41:59;31;26;
29062;PMS5003;71206;48.564;-123.458;2023-11-21T02:44:24;22;22;
29062;PMS5003;71206;48.564;-123.458;2023-11-21T02:46:50;18;17;
29062;PMS5003;71206;48.564;-123.458;2023-11-21T02:49:15;18;13;
29062;PMS5003;71206;48.564;-123.458;2023-11-21T02:51:40;12;11;
29062;PMS5003;71206;48.564;-123.458;2023-11-21T02:54:10;12;8;
29062;PMS5003;71206;48.564;-123.458;2023-11-21T02:56:31;11;11;
29062;PMS5003;71206;48.564;-123.458;2023-11-21T02:58:56;20;17;
29062;PMS5003;71206;48.564;-123.458;2023-11-21T03:01:25;28;26;
29062;PMS5003;71206;48.564;-123.458;2023-11-21T03:03:48;32;32;
29062;PMS5003;71206;48.564;-123.458;2023-11-21T03:06:12;35;32;
29062;PMS5003;71206;48.564;-123.458;2023-11-21T03:08:37;49;44;
29062;PMS5003;71206;48.564;-123.458;2023-11-21T03:11:02;31;24;
29062;PMS5003;71206;48.564;-123.458;2023-11-21T03:13:27;35;28;
29062;PMS5003;71206;48.564;-123.458;2023-11-21T03:15:52;22;21;
29062;PMS5003;71206;48.564;-123.458;2023-11-21T03:18:17;18;17;
29062;PMS5003;71206;48.564;-123.458;2023-11-21T03:20:43;16;13;
29062;PMS5003;71206;48.564;-123.458;2023-11-21T03:23:08;13;10;
29062;PMS5003;71206;48.564;-123.458;2023-11-21T03:25:33;18;17;
29062;PMS5003;71206;48.564;-123.458;2023-11-21T03:27:59;21;17;
29062;PMS5003;71206;48.564;-123.458;2023-11-21T03:30:24;18;18;
29062;PMS5003;71206;48.564;-123.458;2023-11-21T03:32:50;26;21;
29062;PMS5003;71206;48.564;-123.458;2023-11-21T03:35:15;22;20;
29062;PMS5003;71206;48.564;-123.458;2023-11-21T03:37:40;22;19;
29062;PMS5003;71206;48.564;-123.458;2023-11-21T03:40:06;23;19;
29062;PMS5003;71206;48.564;-123.458;2023-11-21T03:42:31;20;17;
29062;PMS5003;71206;48.564;-123.458;2023-11-21T03:44:56;31;30;
29062;PMS5003;71206;48.564;-123.458;2023-11-21T03:47:21;56;49;
29062;PMS5003;71206;48.564;-123.458;2023-11-21T03:49:47;79;65;
29062;PMS5003;71206;48.564;-123.458;2023-11-21T03:52:14;56;54;
29062;PMS5003;71206;48.564;-123.458;2023-11-21T03:54:38;42;37;
29062;PMS5003;71206;48.564;-123.458;2023-11-21T03:57:04;33;26;
29062;PMS5003;71206;48.564;-123.458;2023-11-21T03:59:29;26;25;
29062;PMS5003;71206;48.564;-123.458;2023-11-21T04:01:55;18;16;
29062;PMS5003;71206;48.564;-123.458;2023-11-21T04:04:20;20;16;
29062;PMS5003;71206;48.564;-123.458;2023-11-21T04:06:45;22;21;
29062;PMS5003;71206;48.564;-123.458;2023-11-21T04:09:10;27;22;
29062;PMS5003;71206;48.564;-123.458;2023-11-21T04:11:36;21;16;
29062;PMS5003;71206;48.564;-123.458;2023-11-21T04:14:01;16;16;
29062;PMS5003;71206;48.564;-123.458;2023-11-21T04:16:26;22;21;
29062;PMS5003;71206;48.564;-123.458;2023-11-21T04:18:52;45;36;
29062;PMS5003;71206;48.564;-123.458;2023-11-21T04:21:17;45;36;
29062;PMS5003;71206;48.564;-123.458;2023-11-21T04:23:43;52;46;
29062;PMS5003;71206;48.564;-123.458;2023-11-21T04:26:08;46;37;
29062;PMS5003;71206;48.564;-123.458;2023-11-21T04:28:34;26;23;
29062;PMS5003;71206;48.564;-123.458;2023-11-21T04:30:59;25;21;
29062;PMS5003;71206;48.564;-123.458;2023-11-21T04:33:27;23;22;
29062;PMS5003;71206;48.564;-123.458;2023-11-21T04:35:49;21;21;
29062;PMS5003;71206;48.564;-123.458;2023-11-21T04:38:16;25;22;
29062;PMS5003;71206;48.564;-123.458;2023-11-21T04:40:39;25;22;
29062;PMS5003;71206;48.564;-123.458;2023-11-21T04:43:05;20;20;
29062;PMS5003;71206;48.564;-123.458;2023-11-21T04:45:31;29;27;
29062;PMS5003;71206;48.564;-123.458;2023-11-21T04:47:55;21;20;
29062;PMS5003;71206;48.564;-123.458;2023-11-21T04:50:21;22;20;
29062;PMS5003;71206;48.564;-123.458;2023-11-21T04:52:45;29;26;
29062;PMS5003;71206;48.564;-123.458;2023-11-21T04:55:12;26;26;
29062;PMS5003;71206;48.564;-123.458;2023-11-21T04:57:36;17;17;
29062;PMS5003;71206;48.564;-123.458;2023-11-21T05:00:05;17;15;
29062;PMS5003;71206;48.564;-123.458;2023-11-21T05:02:27;17;15;
29062;PMS5003;71206;48.564;-123.458;2023-11-21T05:04:52;29;25;
29062;PMS5003;71206;48.564;-123.458;2023-11-21T05:07:17;22;18;
29062;PMS5003;71206;48.564;-123.458;2023-11-21T05:09:43;24;22;
29062;PMS5003;71206;48.564;-123.458;2023-11-21T05:12:08;22;17;
29062;PMS5003;71206;48.564;-123.458;2023-11-21T05:14:33;21;16;
29062;PMS5003;71206;48.564;-123.458;2023-11-21T05:16:59;21;17;
29062;PMS5003;71206;48.564;-123.458;2023-11-21T05:19:25;16;15;
29062;PMS5003;71206;48.564;-123.458;2023-11-21T05:21:50;22;17;
29062;PMS5003;71206;48.564;-123.458;2023-11-21T05:24:14;15;13;
29062;PMS5003;71206;48.564;-123.458;2023-11-21T05:26:40;17;16;
29062;PMS5003;71206;48.564;-123.458;2023-11-21T05:29:05;12;12;
29062;PMS5003;71206;48.564;-123.458;2023-11-21T05:31:31;17;15;
29062;PMS5003;71206;48.564;-123.458;2023-11-21T05:33:56;20;16;
29062;PMS5003;71206;48.564;-123.458;2023-11-21T05:36:21;17;15;
29062;PMS5003;71206;48.564;-123.458;2023-11-21T05:38:46;13;12;
29062;PMS5003;71206;48.564;-123.458;2023-11-21T05:41:12;44;36;
29062;PMS5003;71206;48.564;-123.458;2023-11-21T05:43:37;39;35;
29062;PMS5003;71206;48.564;-123.458;2023-11-21T05:46:03;27;24;
29062;PMS5003;71206;48.564;-123.458;2023-11-21T05:48:28;39;31;
29062;PMS5003;71206;48.564;-123.458;2023-11-21T05:50:53;78;70;
29062;PMS5003;71206;48.564;-123.458;2023-11-21T05:53:19;27;25;
29062;PMS5003;71206;48.564;-123.458;2023-11-21T05:55:45;31;27;
29062;PMS5003;71206;48.564;-123.458;2023-11-21T05:58:10;29;22;
29062;PMS5003;71206;48.564;-123.458;2023-11-21T06:00:37;16;13;
29062;PMS5003;71206;48.564;-123.458;2023-11-21T06:03:01;16;16;
29062;PMS5003;71206;48.564;-123.458;2023-11-21T06:05:27;17;16;
29062;PMS5003;71206;48.564;-123.458;2023-11-21T06:07:52;16;15;
29062;PMS5003;71206;48.564;-123.458;2023-11-21T06:10:19;16;16;
29062;PMS5003;71206;48.564;-123.458;2023-11-21T06:12:42;17;16;
29062;PMS5003;71206;48.564;-123.458;2023-11-21T06:15:08;16;15;
29062;PMS5003;71206;48.564;-123.458;2023-11-21T06:17:36;19;14;
29062;PMS5003;71206;48.564;-123.458;2023-11-21T06:19:59;28;25;
29062;PMS5003;71206;48.564;-123.458;2023-11-21T06:22:24;17;15;
29062;PMS5003;71206;48.564;-123.458;2023-11-21T06:24:49;15;12;
29062;PMS5003;71206;48.564;-123.458;2023-11-21T06:27:15;14;12;
29062;PMS5003;71206;48.564;-123.458;2023-11-21T06:29:40;20;19;
29062;PMS5003;71206;48.564;-123.458;2023-11-21T06:32:06;16;14;
29062;PMS5003;71206;48.564;-123.458;2023-11-21T06:34:32;14;12;
29062;PMS5003;71206;48.564;-123.458;2023-11-21T06:36:57;14;11;
29062;PMS5003;71206;48.564;-123.458;2023-11-21T06:39:27;16;16;
29062;PMS5003;71206;48.564;-123.458;2023-11-21T06:41:48;16;12;
29062;PMS5003;71206;48.564;-123.458;2023-11-21T06:44:13;16;13;
29062;PMS5003;71206;48.564;-123.458;2023-11-21T06:46:38;19;16;
29062;PMS5003;71206;48.564;-123.458;2023-11-21T06:49:04;21;19;
29062;PMS5003;71206;48.564;-123.458;2023-11-21T06:51:31;37;29;
29062;PMS5003;71206;48.564;-123.458;2023-11-21T06:53:55;61;42;
29062;PMS5003;71206;48.564;-123.458;2023-11-21T06:56:21;53;35;
29062;PMS5003;71206;48.564;-123.458;2023-11-21T06:58:46;32;30;
29062;PMS5003;71206;48.564;-123.458;2023-11-21T07:01:11;36;31;
29062;PMS5003;71206;48.564;-123.458;2023-11-21T07:03:37;29;22;
29062;PMS5003;71206;48.564;-123.458;2023-11-21T07:06:02;38;34;
29062;PMS5003;71206;48.564;-123.458;2023-11-21T07:08:27;44;34;
29062;PMS5003;71206;48.564;-123.458;2023-11-21T07:10:53;36;30;
29062;PMS5003;71206;48.564;-123.458;2023-11-21T07:13:18;32;27;
29062;PMS5003;71206;48.564;-123.458;2023-11-21T07:15:44;21;19;
29062;PMS5003;71206;48.564;-123.458;2023-11-21T07:18:09;19;17;
29062;PMS5003;71206;48.564;-123.458;2023-11-21T07:20:34;25;24;
29062;PMS5003;71206;48.564;-123.458;2023-11-21T07:23:00;12;11;
29062;PMS5003;71206;48.564;-123.458;2023-11-21T07:25:24;20;16;
29062;PMS5003;71206;48.564;-123.458;2023-11-21T07:27:50;17;12;
29062;PMS5003;71206;48.564;-123.458;2023-11-21T07:30:15;13;12;
29062;PMS5003;71206;48.564;-123.458;2023-11-21T07:32:40;13;11;
29062;PMS5003;71206;48.564;-123.458;2023-11-21T07:35:06;12;11;
29062;PMS5003;71206;48.564;-123.458;2023-11-21T07:37:31;11;11;
29062;PMS5003;71206;48.564;-123.458;2023-11-21T07:39:56;17;12;
29062;PMS5003;71206;48.564;-123.458;2023-11-21T07:42:22;15;11;
29062;PMS5003;71206;48.564;-123.458;2023-11-21T07:44:50;11;10;
29062;PMS5003;71206;48.564;-123.458;2023-11-21T07:47:13;20;13;
29062;PMS5003;71206;48.564;-123.458;2023-11-21T07:49:38;14;14;
29062;PMS5003;71206;48.564;-123.458;2023-11-21T07:52:04;13;13;
29062;PMS5003;71206;48.564;-123.458;2023-11-21T07:54:29;10;8;
29062;PMS5003;71206;48.564;-123.458;2023-11-21T07:56:54;15;14;
29062;PMS5003;71206;48.564;-123.458;2023-11-21T07:59:19;14;12;
29062;PMS5003;71206;48.564;-123.458;2023-11-21T08:01:45;6;6;
29062;PMS5003;71206;48.564;-123.458;2023-11-21T08:04:10;8;7;
29062;PMS5003;71206;48.564;-123.458;2023-11-21T08:06:35;11;10;
29062;PMS5003;71206;48.564;-123.458;2023-11-21T08:09:00;13;12;
29062;PMS5003;71206;48.564;-123.458;2023-11-21T08:11:25;25;20;
29062;PMS5003;71206;48.564;-123.458;2023-11-21T08:13:51;17;15;
29062;PMS5003;71206;48.564;-123.458;2023-11-21T08:16:16;10;8;
29062;PMS5003;71206;48.564;-123.458;2023-11-21T08:18:41;11;10;
29062;PMS5003;71206;48.564;-123.458;2023-11-21T08:21:07;7;7;
29062;PMS5003;71206;48.564;-123.458;2023-11-21T08:23:32;10;8;
29062;PMS5003;71206;48.564;-123.458;2023-11-21T08:25:59;5;5;
29062;PMS5003;71206;48.564;-123.458;2023-11-21T08:28:23;10;7;
29062;PMS5003;71206;48.564;-123.458;2023-11-21T08:30:49;12;7;
29062;PMS5003;71206;48.564;-123.458;2023-11-21T08:33:13;16;12;
29062;PMS5003;71206;48.564;-123.458;2023-11-21T08:35:38;14;12;
29062;PMS5003;71206;48.564;-123.458;2023-11-21T08:38:06;12;11;
29062;PMS5003;71206;48.564;-123.458;2023-11-21T08:40:30;32;20;
29062;PMS5003;71206;48.564;-123.458;2023-11-21T08:42:55;30;21;
29062;PMS5003;71206;48.564;-123.458;2023-11-21T08:45:20;31;15;
29062;PMS5003;71206;48.564;-123.458;2023-11-21T08:47:46;19;15;
29062;PMS5003;71206;48.564;-123.458;2023-11-21T08:50:11;11;10;
29062;PMS5003;71206;48.564;-123.458;2023-11-21T08:52:36;12;10;
29062;PMS5003;71206;48.564;-123.458;2023-11-21T08:55:02;6;6;
29062;PMS5003;71206;48.564;-123.458;2023-11-21T08:57:27;6;6;
29062;PMS5003;71206;48.564;-123.458;2023-11-21T08:59:52;7;7;
29062;PMS5003;71206;48.564;-123.458;2023-11-21T09:02:17;11;7;
29062;PMS5003;71206;48.564;-123.458;2023-11-21T09:04:43;11;8;
29062;PMS5003;71206;48.564;-123.458;2023-11-21T09:07:13;6;5;
29062;PMS5003;71206;48.564;-123.458;2023-11-21T09:09:33;6;6;
29062;PMS5003;71206;48.564;-123.458;2023-11-21T09:12:03;6;6;
29062;PMS5003;71206;48.564;-123.458;2023-11-21T09:14:25;7;6;
29062;PMS5003;71206;48.564;-123.458;2023-11-21T09:16:50;3;3;
29062;PMS5003;71206;48.564;-123.458;2023-11-21T09:19:15;8;6;
29062;PMS5003;71206;48.564;-123.458;2023-11-21T09:21:40;10;5;
29062;PMS5003;71206;48.564;-123.458;2023-11-21T09:24:06;6;6;
29062;PMS5003;71206;48.564;-123.458;2023-11-21T09:26:31;5;5;
29062;PMS5003;71206;48.564;-123.458;2023-11-21T09:28:56;7;7;
29062;PMS5003;71206;48.564;-123.458;2023-11-21T09:31:22;6;3;
29062;PMS5003;71206;48.564;-123.458;2023-11-21T09:33:47;3;3;
29062;PMS5003;71206;48.564;-123.458;2023-11-21T09:36:13;6;5;
29062;PMS5003;71206;48.564;-123.458;2023-11-21T09:38:38;5;5;
29062;PMS5003;71206;48.564;-123.458;2023-11-21T09:41:04;10;7;
29062;PMS5003;71206;48.564;-123.458;2023-11-21T09:43:29;6;6;
29062;PMS5003;71206;48.564;-123.458;2023-11-21T09:45:56;7;6;
29062;PMS5003;71206;48.564;-123.458;2023-11-21T09:48:19;6;6;
29062;PMS5003;71206;48.564;-123.458;2023-11-21T09:50:44;8;7;
29062;PMS5003;71206;48.564;-123.458;2023-11-21T09:53:13;8;7;
29062;PMS5003;71206;48.564;-123.458;2023-11-21T09:55:35;5;3;
29062;PMS5003;71206;48.564;-123.458;2023-11-21T09:58:01;5;3;
29062;PMS5003;71206;48.564;-123.458;2023-11-21T10:00:26;8;7;
29062;PMS5003;71206;48.564;-123.458;2023-11-21T10:02:52;7;7;
29062;PMS5003;71206;48.564;-123.458;2023-11-21T10:05:17;8;6;
29062;PMS5003;71206;48.564;-123.458;2023-11-21T10:07:43;5;3;
29062;PMS5003;71206;48.564;-123.458;2023-11-21T10:10:08;3;3;
29062;PMS5003;71206;48.564;-123.458;2023-11-21T10:12:34;6;5;
29062;PMS5003;71206;48.564;-123.458;2023-11-21T10:14:59;3;2;
29062;PMS5003;71206;48.564;-123.458;2023-11-21T10:17:24;5;3;
29062;PMS5003;71206;48.564;-123.458;2023-11-21T10:19:49;7;6;
29062;PMS5003;71206;48.564;-123.458;2023-11-21T10:22:15;5;3;
29062;PMS5003;71206;48.564;-123.458;2023-11-21T10:24:40;5;3;
29062;PMS5003;71206;48.564;-123.458;2023-11-21T10:27:06;5;5;
29062;PMS5003;71206;48.564;-123.458;2023-11-21T10:29:31;5;5;
29062;PMS5003;71206;48.564;-123.458;2023-11-21T10:31:57;7;6;
29062;PMS5003;71206;48.564;-123.458;2023-11-21T10:34:22;7;5;
29062;PMS5003;71206;48.564;-123.458;2023-11-21T10:36:47;5;5;
29062;PMS5003;71206;48.564;-123.458;2023-11-21T10:39:14;6;6;
29062;PMS5003;71206;48.564;-123.458;2023-11-21T10:41:40;7;6;
29062;PMS5003;71206;48.564;-123.458;2023-11-21T10:44:04;5;5;
29062;PMS5003;71206;48.564;-123.458;2023-11-21T10:46:28;6;3;
29062;PMS5003;71206;48.564;-123.458;2023-11-21T10:48:54;5;3;
29062;PMS5003;71206;48.564;-123.458;2023-11-21T10:51:20;7;7;
29062;PMS5003;71206;48.564;-123.458;2023-11-21T10:53:45;5;5;
29062;PMS5003;71206;48.564;-123.458;2023-11-21T10:56:10;3;3;
29062;PMS5003;71206;48.564;-123.458;2023-11-21T10:58:36;5;5;
29062;PMS5003;71206;48.564;-123.458;2023-11-21T11:01:02;7;5;
29062;PMS5003;71206;48.564;-123.458;2023-11-21T11:03:26;7;6;
29062;PMS5003;71206;48.564;-123.458;2023-11-21T11:05:52;2;2;
29062;PMS5003;71206;48.564;-123.458;2023-11-21T11:08:18;6;6;
29062;PMS5003;71206;48.564;-123.458;2023-11-21T11:10:43;3;3;
29062;PMS5003;71206;48.564;-123.458;2023-11-21T11:13:08;7;7;
29062;PMS5003;71206;48.564;-123.458;2023-11-21T11:15:33;6;6;
29062;PMS5003;71206;48.564;-123.458;2023-11-21T11:18:03;6;5;
29062;PMS5003;71206;48.564;-123.458;2023-11-21T11:20:25;6;5;
29062;PMS5003;71206;48.564;-123.458;2023-11-21T11:22:52;8;7;
29062;PMS5003;71206;48.564;-123.458;2023-11-21T11:27:44;6;6;
29062;PMS5003;71206;48.564;-123.458;2023-11-21T11:30:08;16;10;
29062;PMS5003;71206;48.564;-123.458;2023-11-21T11:32:36;14;13;
29062;PMS5003;71206;48.564;-123.458;2023-11-21T11:34:59;8;8;
29062;PMS5003;71206;48.564;-123.458;2023-11-21T11:37:23;7;7;
29062;PMS5003;71206;48.564;-123.458;2023-11-21T11:39:48;6;5;
29062;PMS5003;71206;48.564;-123.458;2023-11-21T11:42:13;5;3;
29062;PMS5003;71206;48.564;-123.458;2023-11-21T11:44:47;7;6;
29062;PMS5003;71206;48.564;-123.458;2023-11-21T11:47:03;6;5;
29062;PMS5003;71206;48.564;-123.458;2023-11-21T11:49:29;6;3;
29062;PMS5003;71206;48.564;-123.458;2023-11-21T11:54:20;5;5;
29062;PMS5003;71206;48.564;-123.458;2023-11-21T11:56:45;3;3;
29062;PMS5003;71206;48.564;-123.458;2023-11-21T11:59:10;5;3;
29062;PMS5003;71206;48.564;-123.458;2023-11-21T12:01:35;6;5;
29062;PMS5003;71206;48.564;-123.458;2023-11-21T12:06:30;6;5;
29062;PMS5003;71206;48.564;-123.458;2023-11-21T12:08:52;3;3;
29062;PMS5003;71206;48.564;-123.458;2023-11-21T12:11:18;2;2;
29062;PMS5003;71206;48.564;-123.458;2023-11-21T12:13:43;5;5;
29062;PMS5003;71206;48.564;-123.458;2023-11-21T12:16:08;3;2;
29062;PMS5003;71206;48.564;-123.458;2023-11-21T12:18:33;10;5;
29062;PMS5003;71206;48.564;-123.458;2023-11-21T12:20:59;6;6;
29062;PMS5003;71206;48.564;-123.458;2023-11-21T12:23:24;6;5;
29062;PMS5003;71206;48.564;-123.458;2023-11-21T12:25:50;6;6;
29062;PMS5003;71206;48.564;-123.458;2023-11-21T12:28:15;5;5;
29062;PMS5003;71206;48.564;-123.458;2023-11-21T12:30:40;6;3;
29062;PMS5003;71206;48.564;-123.458;2023-11-21T12:33:06;6;6;
29062;PMS5003;71206;48.564;-123.458;2023-11-21T12:35:34;6;5;
29062;PMS5003;71206;48.564;-123.458;2023-11-21T12:37:57;6;6;
29062;PMS5003;71206;48.564;-123.458;2023-11-21T12:40:22;6;6;
29062;PMS5003;71206;48.564;-123.458;2023-11-21T12:42:48;6;6;
29062;PMS5003;71206;48.564;-123.458;2023-11-21T12:45:19;5;5;
29062;PMS5003;71206;48.564;-123.458;2023-11-21T12:47:40;12;6;
29062;PMS5003;71206;48.564;-123.458;2023-11-21T12:50:04;3;3;
29062;PMS5003;71206;48.564;-123.458;2023-11-21T12:52:29;5;5;
29062;PMS5003;71206;48.564;-123.458;2023-11-21T12:54:55;7;6;
29062;PMS5003;71206;48.564;-123.458;2023-11-21T12:57:20;7;6;
29062;PMS5003;71206;48.564;-123.458;2023-11-21T12:59:46;3;3;
29062;PMS5003;71206;48.564;-123.458;2023-11-21T13:02:12;6;3;
29062;PMS5003;71206;48.564;-123.458;2023-11-21T13:04:36;7;6;
29062;PMS5003;71206;48.564;-123.458;2023-11-21T13:07:03;5;2;
29062;PMS5003;71206;48.564;-123.458;2023-11-21T13:09:28;5;5;
29062;PMS5003;71206;48.564;-123.458;2023-11-21T13:14:18;5;5;
29062;PMS5003;71206;48.564;-123.458;2023-11-21T13:16:43;6;5;
29062;PMS5003;71206;48.564;-123.458;2023-11-21T13:19:09;6;5;
29062;PMS5003;71206;48.564;-123.458;2023-11-21T13:21:34;6;6;
29062;PMS5003;71206;48.564;-123.458;2023-11-21T13:24:04;9;6;
29062;PMS5003;71206;48.564;-123.458;2023-11-21T13:26:26;5;5;
29062;PMS5003;71206;48.564;-123.458;2023-11-21T13:28:51;6;6;
29062;PMS5003;71206;48.564;-123.458;2023-11-21T13:31:16;5;3;
29062;PMS5003;71206;48.564;-123.458;2023-11-21T13:33:41;5;5;
29062;PMS5003;71206;48.564;-123.458;2023-11-21T13:36:08;7;5;
29062;PMS5003;71206;48.564;-123.458;2023-11-21T13:38:33;5;5;
29062;PMS5003;71206;48.564;-123.458;2023-11-21T13:40:58;3;2;
29062;PMS5003;71206;48.564;-123.458;2023-11-21T13:43:24;5;3;
29062;PMS5003;71206;48.564;-123.458;2023-11-21T13:45:49;7;6;
29062;PMS5003;71206;48.564;-123.458;2023-11-21T13:48:14;3;3;
29062;PMS5003;71206;48.564;-123.458;2023-11-21T13:50:40;7;6;
29062;PMS5003;71206;48.564;-123.458;2023-11-21T13:53:05;5;5;
29062;PMS5003;71206;48.564;-123.458;2023-11-21T13:55:30;5;5;
29062;PMS5003;71206;48.564;-123.458;2023-11-21T13:57:56;7;5;
29062;PMS5003;71206;48.564;-123.458;2023-11-21T14:00:21;3;3;
29062;PMS5003;71206;48.564;-123.458;2023-11-21T14:02:46;5;5;
29062;PMS5003;71206;48.564;-123.458;2023-11-21T14:05:12;6;5;
29062;PMS5003;71206;48.564;-123.458;2023-11-21T14:07:38;7;6;
29062;PMS5003;71206;48.564;-123.458;2023-11-21T14:10:03;5;5;
29062;PMS5003;71206;48.564;-123.458;2023-11-21T14:12:29;3;3;
29062;PMS5003;71206;48.564;-123.458;2023-11-21T14:14:54;5;5;
29062;PMS5003;71206;48.564;-123.458;2023-11-21T14:17:19;6;5;
29062;PMS5003;71206;48.564;-123.458;2023-11-21T14:19:45;6;5;
29062;PMS5003;71206;48.564;-123.458;2023-11-21T14:22:10;7;5;
29062;PMS5003;71206;48.564;-123.458;2023-11-21T14:24:36;6;3;
29062;PMS5003;71206;48.564;-123.458;2023-11-21T14:27:01;6;5;
29062;PMS5003;71206;48.564;-123.458;2023-11-21T14:29:27;7;6;
29062;PMS5003;71206;48.564;-123.458;2023-11-21T14:31:52;5;5;
29062;PMS5003;71206;48.564;-123.458;2023-11-21T14:34:17;6;5;
29062;PMS5003;71206;48.564;-123.458;2023-11-21T14:36:43;6;6;
29062;PMS5003;71206;48.564;-123.458;2023-11-21T14:39:08;7;5;
29062;PMS5003;71206;48.564;-123.458;2023-11-21T14:41:33;6;5;
29062;PMS5003;71206;48.564;-123.458;2023-11-21T14:44:00;5;5;
29062;PMS5003;71206;48.564;-123.458;2023-11-21T14:46:24;6;6;
29062;PMS5003;71206;48.564;-123.458;2023-11-21T14:48:50;5;5;
29062;PMS5003;71206;48.564;-123.458;2023-11-21T14:51:15;5;5;
29062;PMS5003;71206;48.564;-123.458;2023-11-21T14:53:42;9;3;
29062;PMS5003;71206;48.564;-123.458;2023-11-21T14:56:06;3;2;
29062;PMS5003;71206;48.564;-123.458;2023-11-21T14:58:31;5;3;
29062;PMS5003;71206;48.564;-123.458;2023-11-21T15:00:57;5;5;
29062;PMS5003;71206;48.564;-123.458;2023-11-21T15:03:22;3;3;
29062;PMS5003;71206;48.564;-123.458;2023-11-21T15:05:48;2;2;
29062;PMS5003;71206;48.564;-123.458;2023-11-21T15:08:14;6;5;
29062;PMS5003;71206;48.564;-123.458;2023-11-21T15:10:39;7;6;
29062;PMS5003;71206;48.564;-123.458;2023-11-21T15:13:04;9;7;
29062;PMS5003;71206;48.564;-123.458;2023-11-21T15:15:29;7;6;
29062;PMS5003;71206;48.564;-123.458;2023-11-21T15:17:55;6;6;
29062;PMS5003;71206;48.564;-123.458;2023-11-21T15:20:20;6;6;
29062;PMS5003;71206;48.564;-123.458;2023-11-21T15:22:46;6;6;
29062;PMS5003;71206;48.564;-123.458;2023-11-21T15:25:11;6;6;
29062;PMS5003;71206;48.564;-123.458;2023-11-21T15:27:38;7;5;
29062;PMS5003;71206;48.564;-123.458;2023-11-21T15:30:02;5;3;
29062;PMS5003;71206;48.564;-123.458;2023-11-21T15:32:27;5;5;
29062;PMS5003;71206;48.564;-123.458;2023-11-21T15:34:53;5;5;
29062;PMS5003;71206;48.564;-123.458;2023-11-21T15:37:19;6;6;
29062;PMS5003;71206;48.564;-123.458;2023-11-21T15:39:45;5;5;
29062;PMS5003;71206;48.564;-123.458;2023-11-21T15:42:09;5;5;